Windhoek — 3FWJ3 — position and weather

sailwx.info

Track history (hours):
 
Tides and Currents Weather Stations Pressure Air Temp Water Temp Dewpoint Dewpoint Depression Visibility Wind Speed Wind Dir Waves Ship Positions

Windhoek

Last reported at 2017-Mar-26 08:25 UTC. Time now 2017-Mar-26 20:49 UTC.
Position N 39°39' W 009°39'.

Length 172 m; draft 6.5 m.

Type: Ship (hazmat cat C). MMSI: 370431000.

Date/timePositionNaut miles runAvg speedWind from/ knotsBaromVisibWave heightAir tempDewpointWater temp
2017-Mar-26 08:25N 39°39' W 009°39'1213.7
2017-Mar-26 07:33N 39°28' W 009°45'1313.3
2017-Mar-26 06:33N 39°16' W 009°51'1313.5
2017-Mar-26 05:33N 39°02' W 009°52'1313.3
2017-Mar-26 04:33N 38°49' W 009°52'1212.2
2017-Mar-26 03:33N 38°38' W 009°46'1313.0
2017-Mar-26 02:33N 38°36' W 009°30'1111.4
2017-Mar-26 01:33N 38°41' W 009°17'8 7.9
2017-Mar-26 00:33N 38°43' W 009°07'0 0.2
2017-Mar-25 23:28N 38°43' W 009°07'0 0.0
2017-Mar-25 22:28N 38°43' W 009°07'0 0.0
2017-Mar-25 21:31N 38°43' W 009°07'0 0.0
2017-Mar-25 20:31N 38°43' W 009°07'0 0.0
2017-Mar-25 19:31N 38°43' W 009°07'0 0.0
2017-Mar-25 18:31N 38°43' W 009°07'0 0.0
2017-Mar-25 17:31N 38°43' W 009°07'0 0.0
2017-Mar-25 16:28N 38°43' W 009°07'0 0.0
2017-Mar-25 15:28N 38°43' W 009°07'0 0.0
2017-Mar-25 14:31N 38°43' W 009°07'0 0.0
2017-Mar-25 13:22N 38°43' W 009°07'0 0.0
2017-Mar-25 12:28N 38°43' W 009°07'0 0.0
2017-Mar-25 11:22N 38°43' W 009°07'0 0.0
2017-Mar-25 10:31N 38°43' W 009°07'0 0.0
2017-Mar-25 09:28N 38°43' W 009°07'0 0.0
2017-Mar-25 08:28N 38°43' W 009°07'0 0.0
2017-Mar-25 07:31N 38°43' W 009°07'0 0.0
2017-Mar-25 06:31N 38°43' W 009°07'0 0.0
2017-Mar-25 05:31N 38°43' W 009°07'0 0.0
2017-Mar-25 04:28N 38°43' W 009°07'0 0.0
2017-Mar-25 03:31N 38°43' W 009°07'0 0.0
2017-Mar-25 02:31N 38°43' W 009°07'0 0.0
2017-Mar-25 01:31N 38°43' W 009°07'0 0.0
2017-Mar-25 00:28N 38°43' W 009°07'0 0.0
2017-Mar-24 23:28N 38°43' W 009°07'0 0.0
2017-Mar-24 22:28N 38°43' W 009°07'0 0.0
2017-Mar-24 21:28N 38°43' W 009°07'0 0.0
2017-Mar-24 20:28N 38°43' W 009°07'0 0.0
2017-Mar-24 19:28N 38°43' W 009°07'0 0.0
2017-Mar-24 18:28N 38°43' W 009°07'0 0.0
2017-Mar-24 17:31N 38°43' W 009°07'0 0.0
2017-Mar-24 16:10N 38°43' W 009°07'0 0.0
2017-Mar-24 13:28N 38°43' W 009°07'0 0.0
2017-Mar-24 12:28N 38°43' W 009°07'0 0.0
2017-Mar-24 11:28N 38°43' W 009°07'0 0.0
2017-Mar-24 09:31N 38°43' W 009°07'0 0.0
2017-Mar-24 08:31N 38°43' W 009°07'0 0.0
2017-Mar-24 07:31N 38°43' W 009°07'2 2.6
2017-Mar-24 06:33N 38°42' W 009°10'9 8.7
2017-Mar-24 05:33N 38°39' W 009°20'8 7.9
2017-Mar-24 04:33N 38°32' W 009°25'1414.3
2017-Mar-24 03:34N 38°18' W 009°24'1413.9
2017-Mar-24 02:33N 38°04' W 009°23'1413.6
2017-Mar-24 01:33N 37°50' W 009°22'1313.4
2017-Mar-24 00:34N 37°37' W 009°21'6111.7
2017-Mar-23 19:22N 36°41' W 008°53'1213.2
2017-Mar-23 18:27N 36°37' W 008°38'14613.4
2017-Mar-23 07:32N 35°58' W 005°43'1212.0
2017-Mar-23 06:33N 35°54' W 005°30'1 0.5
2017-Mar-23 05:32N 35°54' W 005°29'0 0.0
2017-Mar-23 04:29N 35°54' W 005°29'0 0.0
2017-Mar-23 03:32N 35°54' W 005°29'0 0.0
2017-Mar-23 02:29N 35°54' W 005°29'0 0.3
2017-Mar-23 01:34N 35°54' W 005°30'2 2.2
2017-Mar-23 00:33N 35°55' W 005°32'1 1.3
2017-Mar-22 23:33N 35°54' W 005°34'2 1.4
2017-Mar-22 22:20N 35°53' W 005°33'0 0.0
2017-Mar-22 18:17N 35°53' W 005°33'0 0.0
2017-Mar-22 16:14N 35°53' W 005°33'0 0.0
2017-Mar-22 15:23N 35°53' W 005°33'0 0.0
2017-Mar-22 14:17N 35°53' W 005°33'0 0.0
2017-Mar-22 13:32N 35°53' W 005°33'0 0.0
2017-Mar-22 12:32N 35°53' W 005°33'0 0.0
2017-Mar-22 11:32N 35°53' W 005°33'0 0.0
2017-Mar-22 10:26N 35°53' W 005°33'0 0.0
2017-Mar-22 09:23N 35°53' W 005°33'0 0.0
2017-Mar-22 08:23N 35°53' W 005°33'0 0.0
2017-Mar-22 07:26N 35°53' W 005°33'0 0.0
2017-Mar-22 06:32N 35°53' W 005°33'0 0.0
2017-Mar-22 05:17N 35°53' W 005°33'0 0.0
2017-Mar-22 04:32N 35°53' W 005°33'0 0.0
2017-Mar-22 03:14N 35°53' W 005°33'0 0.0
2017-Mar-22 02:29N 35°53' W 005°33'0 0.0
2017-Mar-22 00:11N 35°53' W 005°33'0 0.0
2017-Mar-21 23:32N 35°53' W 005°33'0 0.0
2017-Mar-21 22:23N 35°53' W 005°33'0 0.0
2017-Mar-21 21:32N 35°53' W 005°33'0 0.0
2017-Mar-21 20:14N 35°53' W 005°33'0 0.0
2017-Mar-21 19:32N 35°53' W 005°33'0 0.0
2017-Mar-21 18:26N 35°53' W 005°33'0 0.0
2017-Mar-21 13:20N 35°53' W 005°33'0 0.0
2017-Mar-21 12:26N 35°53' W 005°33'0 0.0
2017-Mar-21 11:29N 35°53' W 005°33'0 0.0
2017-Mar-21 09:26N 35°53' W 005°33'0 0.0
2017-Mar-21 08:20N 35°53' W 005°33'0 0.1
2017-Mar-21 07:29N 35°53' W 005°33'0 0.1
2017-Mar-21 06:23N 35°53' W 005°33'0 0.0
2017-Mar-21 05:17N 35°53' W 005°34'0 0.0
2017-Mar-21 04:26N 35°53' W 005°34'0 0.0
2017-Mar-21 02:20N 35°53' W 005°34'0 0.0
2017-Mar-21 01:26N 35°53' W 005°34'0 0.0
2017-Mar-21 00:23N 35°53' W 005°34'0 0.0
2017-Mar-20 23:26N 35°53' W 005°34'0 0.0
2017-Mar-20 19:29N 35°53' W 005°34'0 0.0
2017-Mar-20 17:11N 35°53' W 005°33'0 0.0
2017-Mar-20 16:29N 35°53' W 005°33'0 0.0
2017-Mar-20 14:14N 35°53' W 005°34'0 0.0
2017-Mar-20 13:29N 35°53' W 005°34'0 0.0
2017-Mar-20 12:32N 35°53' W 005°34'0 0.0
2017-Mar-20 11:29N 35°53' W 005°34'0 0.0
2017-Mar-20 10:23N 35°53' W 005°34'0 0.0
2017-Mar-20 09:32N 35°53' W 005°34'0 0.0
2017-Mar-20 08:32N 35°53' W 005°34'0 0.1
2017-Mar-20 07:32N 35°53' W 005°34'0 0.2
2017-Mar-20 06:32N 35°53' W 005°34'0 0.1
2017-Mar-20 05:32N 35°53' W 005°34'0 0.1
2017-Mar-20 04:32N 35°53' W 005°34'0 0.0
2017-Mar-20 03:32N 35°53' W 005°34'0 0.0
2017-Mar-20 02:32N 35°53' W 005°34'0 0.0
2017-Mar-20 01:32N 35°53' W 005°34'0 0.1
2017-Mar-20 00:32N 35°53' W 005°34'0 0.0
2017-Mar-19 23:20N 35°53' W 005°34'0 0.0
2017-Mar-19 22:32N 35°53' W 005°34'0 0.0
2017-Mar-19 21:32N 35°53' W 005°34'0 0.0
2017-Mar-19 20:32N 35°53' W 005°34'0 0.1
2017-Mar-19 19:32N 35°53' W 005°34'0 0.1
2017-Mar-19 18:29N 35°53' W 005°34'0 0.0
2017-Mar-19 17:32N 35°53' W 005°34'1 0.6
2017-Mar-19 16:33N 35°53' W 005°35'6 5.6
2017-Mar-19 15:33N 35°54' W 005°41'1812.8
2017-Mar-19 14:10N 35°54' W 006°03'  
Track history (hours):
 
Tides and Currents Weather Stations Pressure Air Temp Water Temp Dewpoint Dewpoint Depression Visibility Wind Speed Wind Dir Waves Ship Positions

Windhoek

Last reported at 2017-Mar-26 08:25 UTC. Time now 2017-Mar-26 20:49 UTC.
Position N 39°39' W 009°39'.

Length 172 m; draft 6.5 m.

Type: Ship (hazmat cat C). MMSI: 370431000.

Date/timePositionNaut miles runAvg speedWind from/ knotsBaromVisibWave heightAir tempDewpointWater temp
2017-Mar-26 08:25N 39°39' W 009°39'1213.7
2017-Mar-26 07:33N 39°28' W 009°45'1313.3
2017-Mar-26 06:33N 39°16' W 009°51'1313.5
2017-Mar-26 05:33N 39°02' W 009°52'1313.3
2017-Mar-26 04:33N 38°49' W 009°52'1212.2
2017-Mar-26 03:33N 38°38' W 009°46'1313.0
2017-Mar-26 02:33N 38°36' W 009°30'1111.4
2017-Mar-26 01:33N 38°41' W 009°17'8 7.9
2017-Mar-26 00:33N 38°43' W 009°07'0 0.2
2017-Mar-25 23:28N 38°43' W 009°07'0 0.0
2017-Mar-25 22:28N 38°43' W 009°07'0 0.0
2017-Mar-25 21:31N 38°43' W 009°07'0 0.0
2017-Mar-25 20:31N 38°43' W 009°07'0 0.0
2017-Mar-25 19:31N 38°43' W 009°07'0 0.0
2017-Mar-25 18:31N 38°43' W 009°07'0 0.0
2017-Mar-25 17:31N 38°43' W 009°07'0 0.0
2017-Mar-25 16:28N 38°43' W 009°07'0 0.0
2017-Mar-25 15:28N 38°43' W 009°07'0 0.0
2017-Mar-25 14:31N 38°43' W 009°07'0 0.0
2017-Mar-25 13:22N 38°43' W 009°07'0 0.0
2017-Mar-25 12:28N 38°43' W 009°07'0 0.0
2017-Mar-25 11:22N 38°43' W 009°07'0 0.0
2017-Mar-25 10:31N 38°43' W 009°07'0 0.0
2017-Mar-25 09:28N 38°43' W 009°07'0 0.0
2017-Mar-25 08:28N 38°43' W 009°07'0 0.0
2017-Mar-25 07:31N 38°43' W 009°07'0 0.0
2017-Mar-25 06:31N 38°43' W 009°07'0 0.0
2017-Mar-25 05:31N 38°43' W 009°07'0 0.0
2017-Mar-25 04:28N 38°43' W 009°07'0 0.0
2017-Mar-25 03:31N 38°43' W 009°07'0 0.0
2017-Mar-25 02:31N 38°43' W 009°07'0 0.0
2017-Mar-25 01:31N 38°43' W 009°07'0 0.0
2017-Mar-25 00:28N 38°43' W 009°07'0 0.0
2017-Mar-24 23:28N 38°43' W 009°07'0 0.0
2017-Mar-24 22:28N 38°43' W 009°07'0 0.0
2017-Mar-24 21:28N 38°43' W 009°07'0 0.0
2017-Mar-24 20:28N 38°43' W 009°07'0 0.0
2017-Mar-24 19:28N 38°43' W 009°07'0 0.0
2017-Mar-24 18:28N 38°43' W 009°07'0 0.0
2017-Mar-24 17:31N 38°43' W 009°07'0 0.0
2017-Mar-24 16:10N 38°43' W 009°07'0 0.0
2017-Mar-24 13:28N 38°43' W 009°07'0 0.0
2017-Mar-24 12:28N 38°43' W 009°07'0 0.0
2017-Mar-24 11:28N 38°43' W 009°07'0 0.0
2017-Mar-24 09:31N 38°43' W 009°07'0 0.0
2017-Mar-24 08:31N 38°43' W 009°07'0 0.0
2017-Mar-24 07:31N 38°43' W 009°07'2 2.6
2017-Mar-24 06:33N 38°42' W 009°10'9 8.7
2017-Mar-24 05:33N 38°39' W 009°20'8 7.9
2017-Mar-24 04:33N 38°32' W 009°25'1414.3
2017-Mar-24 03:34N 38°18' W 009°24'1413.9
2017-Mar-24 02:33N 38°04' W 009°23'1413.6
2017-Mar-24 01:33N 37°50' W 009°22'1313.4
2017-Mar-24 00:34N 37°37' W 009°21'6111.7
2017-Mar-23 19:22N 36°41' W 008°53'1213.2
2017-Mar-23 18:27N 36°37' W 008°38'14613.4
2017-Mar-23 07:32N 35°58' W 005°43'1212.0
2017-Mar-23 06:33N 35°54' W 005°30'1 0.5
2017-Mar-23 05:32N 35°54' W 005°29'0 0.0
2017-Mar-23 04:29N 35°54' W 005°29'0 0.0
2017-Mar-23 03:32N 35°54' W 005°29'0 0.0
2017-Mar-23 02:29N 35°54' W 005°29'0 0.3
2017-Mar-23 01:34N 35°54' W 005°30'2 2.2
2017-Mar-23 00:33N 35°55' W 005°32'1 1.3
2017-Mar-22 23:33N 35°54' W 005°34'2 1.4
2017-Mar-22 22:20N 35°53' W 005°33'0 0.0
2017-Mar-22 18:17N 35°53' W 005°33'0 0.0
2017-Mar-22 16:14N 35°53' W 005°33'0 0.0
2017-Mar-22 15:23N 35°53' W 005°33'0 0.0
2017-Mar-22 14:17N 35°53' W 005°33'0 0.0
2017-Mar-22 13:32N 35°53' W 005°33'0 0.0
2017-Mar-22 12:32N 35°53' W 005°33'0 0.0
2017-Mar-22 11:32N 35°53' W 005°33'0 0.0
2017-Mar-22 10:26N 35°53' W 005°33'0 0.0
2017-Mar-22 09:23N 35°53' W 005°33'0 0.0
2017-Mar-22 08:23N 35°53' W 005°33'0 0.0
2017-Mar-22 07:26N 35°53' W 005°33'0 0.0
2017-Mar-22 06:32N 35°53' W 005°33'0 0.0
2017-Mar-22 05:17N 35°53' W 005°33'0 0.0
2017-Mar-22 04:32N 35°53' W 005°33'0 0.0
2017-Mar-22 03:14N 35°53' W 005°33'0 0.0
2017-Mar-22 02:29N 35°53' W 005°33'0 0.0
2017-Mar-22 00:11N 35°53' W 005°33'0 0.0
2017-Mar-21 23:32N 35°53' W 005°33'0 0.0
2017-Mar-21 22:23N 35°53' W 005°33'0 0.0
2017-Mar-21 21:32N 35°53' W 005°33'0 0.0
2017-Mar-21 20:14N 35°53' W 005°33'0 0.0
2017-Mar-21 19:32N 35°53' W 005°33'0 0.0
2017-Mar-21 18:26N 35°53' W 005°33'0 0.0
2017-Mar-21 13:20N 35°53' W 005°33'0 0.0
2017-Mar-21 12:26N 35°53' W 005°33'0 0.0
2017-Mar-21 11:29N 35°53' W 005°33'0 0.0
2017-Mar-21 09:26N 35°53' W 005°33'0 0.0
2017-Mar-21 08:20N 35°53' W 005°33'0 0.1
2017-Mar-21 07:29N 35°53' W 005°33'0 0.1
2017-Mar-21 06:23N 35°53' W 005°33'0 0.0
2017-Mar-21 05:17N 35°53' W 005°34'0 0.0
2017-Mar-21 04:26N 35°53' W 005°34'0 0.0
2017-Mar-21 02:20N 35°53' W 005°34'0 0.0
2017-Mar-21 01:26N 35°53' W 005°34'0 0.0
2017-Mar-21 00:23N 35°53' W 005°34'0 0.0
2017-Mar-20 23:26N 35°53' W 005°34'0 0.0
2017-Mar-20 19:29N 35°53' W 005°34'0 0.0
2017-Mar-20 17:11N 35°53' W 005°33'0 0.0
2017-Mar-20 16:29N 35°53' W 005°33'0 0.0
2017-Mar-20 14:14N 35°53' W 005°34'0 0.0
2017-Mar-20 13:29N 35°53' W 005°34'0 0.0
2017-Mar-20 12:32N 35°53' W 005°34'0 0.0
2017-Mar-20 11:29N 35°53' W 005°34'0 0.0
2017-Mar-20 10:23N 35°53' W 005°34'0 0.0
2017-Mar-20 09:32N 35°53' W 005°34'0 0.0
2017-Mar-20 08:32N 35°53' W 005°34'0 0.1
2017-Mar-20 07:32N 35°53' W 005°34'0 0.2
2017-Mar-20 06:32N 35°53' W 005°34'0 0.1
2017-Mar-20 05:32N 35°53' W 005°34'0 0.1
2017-Mar-20 04:32N 35°53' W 005°34'0 0.0
2017-Mar-20 03:32N 35°53' W 005°34'0 0.0
2017-Mar-20 02:32N 35°53' W 005°34'0 0.0
2017-Mar-20 01:32N 35°53' W 005°34'0 0.1
2017-Mar-20 00:32N 35°53' W 005°34'0 0.0
2017-Mar-19 23:20N 35°53' W 005°34'0 0.0
2017-Mar-19 22:32N 35°53' W 005°34'0 0.0
2017-Mar-19 21:32N 35°53' W 005°34'0 0.0
2017-Mar-19 20:32N 35°53' W 005°34'0 0.1
2017-Mar-19 19:32N 35°53' W 005°34'0 0.1
2017-Mar-19 18:29N 35°53' W 005°34'0 0.0
2017-Mar-19 17:32N 35°53' W 005°34'1 0.6
2017-Mar-19 16:33N 35°53' W 005°35'6 5.6
2017-Mar-19 15:33N 35°54' W 005°41'1812.8
2017-Mar-19 14:10N 35°54' W 006°03'  

Dump ship's entire track history